sensor_id;sensor_type;location;lat;lon;timestamp;P1;P2;P0
38288;PMS5003;24092;53.370;-6.588;2022-08-25T00:01:31;2;2;
38288;PMS5003;24092;53.370;-6.588;2022-08-25T00:04:02;4;2;
38288;PMS5003;24092;53.370;-6.588;2022-08-25T00:06:32;4;3;
38288;PMS5003;24092;53.370;-6.588;2022-08-25T00:08:59;3;3;
38288;PMS5003;24092;53.370;-6.588;2022-08-25T00:11:27;3;2;
38288;PMS5003;24092;53.370;-6.588;2022-08-25T00:13:58;5;3;
38288;PMS5003;24092;53.370;-6.588;2022-08-25T00:16:29;5;3;
38288;PMS5003;24092;53.370;-6.588;2022-08-25T00:18:57;4;3;
38288;PMS5003;24092;53.370;-6.588;2022-08-25T00:21:27;5;3;
38288;PMS5003;24092;53.370;-6.588;2022-08-25T00:23:54;3;2;
38288;PMS5003;24092;53.370;-6.588;2022-08-25T00:26:21;3;3;
38288;PMS5003;24092;53.370;-6.588;2022-08-25T00:28:48;4;3;
38288;PMS5003;24092;53.370;-6.588;2022-08-25T00:31:16;4;4;
38288;PMS5003;24092;53.370;-6.588;2022-08-25T00:33:45;8;6;
38288;PMS5003;24092;53.370;-6.588;2022-08-25T00:36:13;6;6;
38288;PMS5003;24092;53.370;-6.588;2022-08-25T00:38:42;6;6;
38288;PMS5003;24092;53.370;-6.588;2022-08-25T00:41:13;10;8;
38288;PMS5003;24092;53.370;-6.588;2022-08-25T00:43:43;9;8;
38288;PMS5003;24092;53.370;-6.588;2022-08-25T00:46:14;9;9;
38288;PMS5003;24092;53.370;-6.588;2022-08-25T00:48:43;9;8;
38288;PMS5003;24092;53.370;-6.588;2022-08-25T00:51:13;10;9;
38288;PMS5003;24092;53.370;-6.588;2022-08-25T00:53:45;12;11;
38288;PMS5003;24092;53.370;-6.588;2022-08-25T00:56:14;14;10;
38288;PMS5003;24092;53.370;-6.588;2022-08-25T00:58:41;13;11;
38288;PMS5003;24092;53.370;-6.588;2022-08-25T01:01:09;12;8;
38288;PMS5003;24092;53.370;-6.588;2022-08-25T01:03:37;12;9;
38288;PMS5003;24092;53.370;-6.588;2022-08-25T01:06:04;9;9;
38288;PMS5003;24092;53.370;-6.588;2022-08-25T01:08:32;10;10;
38288;PMS5003;24092;53.370;-6.588;2022-08-25T01:11:00;10;9;
38288;PMS5003;24092;53.370;-6.588;2022-08-25T01:13:31;11;9;
38288;PMS5003;24092;53.370;-6.588;2022-08-25T01:16:00;10;9;
38288;PMS5003;24092;53.370;-6.588;2022-08-25T01:18:28;11;11;
38288;PMS5003;24092;53.370;-6.588;2022-08-25T01:21:09;15;11;
38288;PMS5003;24092;53.370;-6.588;2022-08-25T01:23:36;12;10;
38288;PMS5003;24092;53.370;-6.588;2022-08-25T01:26:04;12;11;
38288;PMS5003;24092;53.370;-6.588;2022-08-25T01:28:35;11;11;
38288;PMS5003;24092;53.370;-6.588;2022-08-25T01:31:03;15;11;
38288;PMS5003;24092;53.370;-6.588;2022-08-25T01:33:30;16;15;
38288;PMS5003;24092;53.370;-6.588;2022-08-25T01:35:57;13;12;
38288;PMS5003;24092;53.370;-6.588;2022-08-25T01:38:24;14;13;
38288;PMS5003;24092;53.370;-6.588;2022-08-25T01:40:52;13;12;
38288;PMS5003;24092;53.370;-6.588;2022-08-25T01:43:21;14;12;
38288;PMS5003;24092;53.370;-6.588;2022-08-25T01:45:56;14;13;
38288;PMS5003;24092;53.370;-6.588;2022-08-25T01:48:23;13;11;
38288;PMS5003;24092;53.370;-6.588;2022-08-25T01:50:50;12;11;
38288;PMS5003;24092;53.370;-6.588;2022-08-25T01:53:18;13;12;
38288;PMS5003;24092;53.370;-6.588;2022-08-25T01:55:49;13;12;
38288;PMS5003;24092;53.370;-6.588;2022-08-25T01:58:16;17;15;
38288;PMS5003;24092;53.370;-6.588;2022-08-25T02:00:43;17;13;
38288;PMS5003;24092;53.370;-6.588;2022-08-25T02:03:12;15;14;
38288;PMS5003;24092;53.370;-6.588;2022-08-25T02:05:40;15;14;
38288;PMS5003;24092;53.370;-6.588;2022-08-25T02:08:07;15;14;
38288;PMS5003;24092;53.370;-6.588;2022-08-25T02:10:34;13;12;
38288;PMS5003;24092;53.370;-6.588;2022-08-25T02:13:01;13;11;
38288;PMS5003;24092;53.370;-6.588;2022-08-25T02:15:29;14;13;
38288;PMS5003;24092;53.370;-6.588;2022-08-25T02:17:57;13;13;
38288;PMS5003;24092;53.370;-6.588;2022-08-25T02:20:25;18;18;
38288;PMS5003;24092;53.370;-6.588;2022-08-25T02:22:52;15;14;
38288;PMS5003;24092;53.370;-6.588;2022-08-25T02:25:20;16;15;
38288;PMS5003;24092;53.370;-6.588;2022-08-25T02:27:47;14;14;
38288;PMS5003;24092;53.370;-6.588;2022-08-25T02:30:15;13;12;
38288;PMS5003;24092;53.370;-6.588;2022-08-25T02:32:43;16;14;
38288;PMS5003;24092;53.370;-6.588;2022-08-25T02:35:10;16;14;
38288;PMS5003;24092;53.370;-6.588;2022-08-25T02:37:37;16;15;
38288;PMS5003;24092;53.370;-6.588;2022-08-25T02:40:05;15;13;
38288;PMS5003;24092;53.370;-6.588;2022-08-25T02:42:34;17;15;
38288;PMS5003;24092;53.370;-6.588;2022-08-25T02:45:00;17;15;
38288;PMS5003;24092;53.370;-6.588;2022-08-25T02:47:28;14;13;
38288;PMS5003;24092;53.370;-6.588;2022-08-25T02:49:56;18;17;
38288;PMS5003;24092;53.370;-6.588;2022-08-25T02:52:23;15;15;
38288;PMS5003;24092;53.370;-6.588;2022-08-25T02:54:50;18;16;
38288;PMS5003;24092;53.370;-6.588;2022-08-25T02:57:17;18;15;
38288;PMS5003;24092;53.370;-6.588;2022-08-25T02:59:44;16;16;
38288;PMS5003;24092;53.370;-6.588;2022-08-25T03:02:11;17;16;
38288;PMS5003;24092;53.370;-6.588;2022-08-25T03:04:39;23;22;
38288;PMS5003;24092;53.370;-6.588;2022-08-25T03:07:06;19;19;
38288;PMS5003;24092;53.370;-6.588;2022-08-25T03:09:34;17;17;
38288;PMS5003;24092;53.370;-6.588;2022-08-25T03:12:02;26;22;
38288;PMS5003;24092;53.370;-6.588;2022-08-25T03:14:30;30;27;
38288;PMS5003;24092;53.370;-6.588;2022-08-25T03:16:57;19;18;
38288;PMS5003;24092;53.370;-6.588;2022-08-25T03:22:57;22;21;
38288;PMS5003;24092;53.370;-6.588;2022-08-25T03:25:24;22;22;
38288;PMS5003;24092;53.370;-6.588;2022-08-25T03:27:51;29;26;
38288;PMS5003;24092;53.370;-6.588;2022-08-25T03:30:19;30;25;
38288;PMS5003;24092;53.370;-6.588;2022-08-25T03:32:46;24;24;
38288;PMS5003;24092;53.370;-6.588;2022-08-25T03:35:13;28;25;
38288;PMS5003;24092;53.370;-6.588;2022-08-25T03:37:41;25;23;
38288;PMS5003;24092;53.370;-6.588;2022-08-25T03:40:10;27;23;
38288;PMS5003;24092;53.370;-6.588;2022-08-25T03:42:39;32;29;
38288;PMS5003;24092;53.370;-6.588;2022-08-25T03:45:07;20;19;
38288;PMS5003;24092;53.370;-6.588;2022-08-25T03:47:35;24;24;
38288;PMS5003;24092;53.370;-6.588;2022-08-25T03:50:02;23;22;
38288;PMS5003;24092;53.370;-6.588;2022-08-25T03:52:31;30;26;
38288;PMS5003;24092;53.370;-6.588;2022-08-25T03:54:58;24;24;
38288;PMS5003;24092;53.370;-6.588;2022-08-25T03:57:26;28;24;
38288;PMS5003;24092;53.370;-6.588;2022-08-25T03:59:53;25;24;
38288;PMS5003;24092;53.370;-6.588;2022-08-25T04:02:21;22;19;
38288;PMS5003;24092;53.370;-6.588;2022-08-25T04:04:47;23;21;
38288;PMS5003;24092;53.370;-6.588;2022-08-25T04:07:14;18;17;
38288;PMS5003;24092;53.370;-6.588;2022-08-25T04:09:41;25;23;
38288;PMS5003;24092;53.370;-6.588;2022-08-25T04:12:08;16;15;
38288;PMS5003;24092;53.370;-6.588;2022-08-25T04:14:36;20;19;
38288;PMS5003;24092;53.370;-6.588;2022-08-25T04:17:04;16;14;
38288;PMS5003;24092;53.370;-6.588;2022-08-25T04:19:31;15;13;
38288;PMS5003;24092;53.370;-6.588;2022-08-25T04:21:58;17;14;
38288;PMS5003;24092;53.370;-6.588;2022-08-25T04:24:25;14;11;
38288;PMS5003;24092;53.370;-6.588;2022-08-25T04:26:52;12;11;
38288;PMS5003;24092;53.370;-6.588;2022-08-25T04:29:19;11;11;
38288;PMS5003;24092;53.370;-6.588;2022-08-25T04:31:48;10;9;
38288;PMS5003;24092;53.370;-6.588;2022-08-25T04:34:16;11;9;
38288;PMS5003;24092;53.370;-6.588;2022-08-25T04:36:43;7;7;
38288;PMS5003;24092;53.370;-6.588;2022-08-25T04:39:10;12;11;
38288;PMS5003;24092;53.370;-6.588;2022-08-25T04:41:37;7;6;
38288;PMS5003;24092;53.370;-6.588;2022-08-25T04:44:04;7;6;
38288;PMS5003;24092;53.370;-6.588;2022-08-25T04:46:32;10;6;
38288;PMS5003;24092;53.370;-6.588;2022-08-25T04:49:01;8;7;
38288;PMS5003;24092;53.370;-6.588;2022-08-25T04:51:30;11;11;
38288;PMS5003;24092;53.370;-6.588;2022-08-25T04:53:59;8;7;
38288;PMS5003;24092;53.370;-6.588;2022-08-25T04:56:28;9;6;
38288;PMS5003;24092;53.370;-6.588;2022-08-25T04:58:55;7;6;
38288;PMS5003;24092;53.370;-6.588;2022-08-25T05:01:23;8;6;
38288;PMS5003;24092;53.370;-6.588;2022-08-25T05:03:52;11;8;
38288;PMS5003;24092;53.370;-6.588;2022-08-25T05:06:20;4;4;
38288;PMS5003;24092;53.370;-6.588;2022-08-25T05:08:48;8;4;
38288;PMS5003;24092;53.370;-6.588;2022-08-25T05:11:16;6;6;
38288;PMS5003;24092;53.370;-6.588;2022-08-25T05:13:44;8;7;
38288;PMS5003;24092;53.370;-6.588;2022-08-25T05:16:13;8;6;
38288;PMS5003;24092;53.370;-6.588;2022-08-25T05:18:42;7;6;
38288;PMS5003;24092;53.370;-6.588;2022-08-25T05:21:10;7;5;
38288;PMS5003;24092;53.370;-6.588;2022-08-25T05:23:39;7;7;
38288;PMS5003;24092;53.370;-6.588;2022-08-25T05:26:09;6;4;
38288;PMS5003;24092;53.370;-6.588;2022-08-25T05:28:39;4;4;
38288;PMS5003;24092;53.370;-6.588;2022-08-25T05:31:07;9;5;
38288;PMS5003;24092;53.370;-6.588;2022-08-25T05:33:35;7;5;
38288;PMS5003;24092;53.370;-6.588;2022-08-25T05:36:04;5;5;
38288;PMS5003;24092;53.370;-6.588;2022-08-25T05:38:32;7;3;
38288;PMS5003;24092;53.370;-6.588;2022-08-25T05:41:00;5;5;
38288;PMS5003;24092;53.370;-6.588;2022-08-25T05:43:30;6;5;
38288;PMS5003;24092;53.370;-6.588;2022-08-25T05:45:58;6;4;
38288;PMS5003;24092;53.370;-6.588;2022-08-25T05:48:26;4;3;
38288;PMS5003;24092;53.370;-6.588;2022-08-25T05:50:54;5;4;
38288;PMS5003;24092;53.370;-6.588;2022-08-25T05:53:23;5;4;
38288;PMS5003;24092;53.370;-6.588;2022-08-25T05:55:51;3;2;
38288;PMS5003;24092;53.370;-6.588;2022-08-25T05:58:20;4;2;
38288;PMS5003;24092;53.370;-6.588;2022-08-25T06:00:48;5;2;
38288;PMS5003;24092;53.370;-6.588;2022-08-25T06:03:16;4;3;
38288;PMS5003;24092;53.370;-6.588;2022-08-25T06:05:43;11;10;
38288;PMS5003;24092;53.370;-6.588;2022-08-25T06:08:10;3;3;
38288;PMS5003;24092;53.370;-6.588;2022-08-25T06:10:37;2;2;
38288;PMS5003;24092;53.370;-6.588;2022-08-25T06:13:04;4;3;
38288;PMS5003;24092;53.370;-6.588;2022-08-25T06:15:31;5;3;
38288;PMS5003;24092;53.370;-6.588;2022-08-25T06:17:58;2;2;
38288;PMS5003;24092;53.370;-6.588;2022-08-25T06:20:27;2;2;
38288;PMS5003;24092;53.370;-6.588;2022-08-25T06:22:57;3;3;
38288;PMS5003;24092;53.370;-6.588;2022-08-25T06:25:25;7;4;
38288;PMS5003;24092;53.370;-6.588;2022-08-25T06:27:53;5;4;
38288;PMS5003;24092;53.370;-6.588;2022-08-25T06:30:21;3;2;
38288;PMS5003;24092;53.370;-6.588;2022-08-25T06:32:49;7;4;
38288;PMS5003;24092;53.370;-6.588;2022-08-25T06:35:17;5;3;
38288;PMS5003;24092;53.370;-6.588;2022-08-25T06:37:45;6;5;
38288;PMS5003;24092;53.370;-6.588;2022-08-25T06:40:14;6;5;
38288;PMS5003;24092;53.370;-6.588;2022-08-25T06:42:41;6;4;
38288;PMS5003;24092;53.370;-6.588;2022-08-25T06:45:12;5;4;
38288;PMS5003;24092;53.370;-6.588;2022-08-25T06:47:39;5;3;
38288;PMS5003;24092;53.370;-6.588;2022-08-25T06:50:06;7;4;
38288;PMS5003;24092;53.370;-6.588;2022-08-25T06:52:33;2;2;
38288;PMS5003;24092;53.370;-6.588;2022-08-25T06:55:01;5;4;
38288;PMS5003;24092;53.370;-6.588;2022-08-25T06:57:28;5;5;
38288;PMS5003;24092;53.370;-6.588;2022-08-25T06:59:56;3;2;
38288;PMS5003;24092;53.370;-6.588;2022-08-25T07:02:24;3;3;
38288;PMS5003;24092;53.370;-6.588;2022-08-25T07:04:51;5;3;
38288;PMS5003;24092;53.370;-6.588;2022-08-25T07:07:18;2;2;
38288;PMS5003;24092;53.370;-6.588;2022-08-25T07:09:45;4;4;
38288;PMS5003;24092;53.370;-6.588;2022-08-25T07:12:13;4;3;
38288;PMS5003;24092;53.370;-6.588;2022-08-25T07:14:39;6;5;
38288;PMS5003;24092;53.370;-6.588;2022-08-25T07:17:07;4;3;
38288;PMS5003;24092;53.370;-6.588;2022-08-25T07:19:34;3;3;
38288;PMS5003;24092;53.370;-6.588;2022-08-25T07:22:01;3;3;
38288;PMS5003;24092;53.370;-6.588;2022-08-25T07:24:28;4;2;
38288;PMS5003;24092;53.370;-6.588;2022-08-25T07:26:56;4;4;
38288;PMS5003;24092;53.370;-6.588;2022-08-25T07:29:24;7;6;
38288;PMS5003;24092;53.370;-6.588;2022-08-25T07:31:53;3;3;
38288;PMS5003;24092;53.370;-6.588;2022-08-25T07:34:20;3;3;
38288;PMS5003;24092;53.370;-6.588;2022-08-25T07:36:47;3;3;
38288;PMS5003;24092;53.370;-6.588;2022-08-25T07:39:14;5;2;
38288;PMS5003;24092;53.370;-6.588;2022-08-25T07:41:42;2;2;
38288;PMS5003;24092;53.370;-6.588;2022-08-25T07:44:09;4;4;
38288;PMS5003;24092;53.370;-6.588;2022-08-25T07:46:38;4;3;
38288;PMS5003;24092;53.370;-6.588;2022-08-25T07:49:06;3;2;
38288;PMS5003;24092;53.370;-6.588;2022-08-25T07:51:33;4;3;
38288;PMS5003;24092;53.370;-6.588;2022-08-25T07:54:01;2;2;
38288;PMS5003;24092;53.370;-6.588;2022-08-25T07:56:29;2;2;
38288;PMS5003;24092;53.370;-6.588;2022-08-25T07:58:56;6;4;
38288;PMS5003;24092;53.370;-6.588;2022-08-25T08:01:23;5;3;
38288;PMS5003;24092;53.370;-6.588;2022-08-25T08:03:51;3;3;
38288;PMS5003;24092;53.370;-6.588;2022-08-25T08:06:18;4;3;
38288;PMS5003;24092;53.370;-6.588;2022-08-25T08:08:49;4;4;
38288;PMS5003;24092;53.370;-6.588;2022-08-25T08:11:18;5;4;
38288;PMS5003;24092;53.370;-6.588;2022-08-25T08:13:46;5;5;
38288;PMS5003;24092;53.370;-6.588;2022-08-25T08:16:15;3;3;
38288;PMS5003;24092;53.370;-6.588;2022-08-25T08:18:44;8;4;
38288;PMS5003;24092;53.370;-6.588;2022-08-25T08:21:12;8;5;
38288;PMS5003;24092;53.370;-6.588;2022-08-25T08:23:41;5;4;
38288;PMS5003;24092;53.370;-6.588;2022-08-25T08:26:09;3;3;
38288;PMS5003;24092;53.370;-6.588;2022-08-25T08:28:36;5;3;
38288;PMS5003;24092;53.370;-6.588;2022-08-25T08:31:03;7;5;
38288;PMS5003;24092;53.370;-6.588;2022-08-25T08:33:32;4;4;
38288;PMS5003;24092;53.370;-6.588;2022-08-25T08:36:00;5;3;
38288;PMS5003;24092;53.370;-6.588;2022-08-25T08:38:29;5;3;
38288;PMS5003;24092;53.370;-6.588;2022-08-25T08:40:59;5;4;
38288;PMS5003;24092;53.370;-6.588;2022-08-25T08:43:34;10;6;
38288;PMS5003;24092;53.370;-6.588;2022-08-25T08:46:02;6;4;
38288;PMS5003;24092;53.370;-6.588;2022-08-25T08:48:48;6;5;
38288;PMS5003;24092;53.370;-6.588;2022-08-25T08:51:24;3;2;
38288;PMS5003;24092;53.370;-6.588;2022-08-25T08:53:58;5;3;
38288;PMS5003;24092;53.370;-6.588;2022-08-25T08:56:33;4;4;
38288;PMS5003;24092;53.370;-6.588;2022-08-25T08:59:06;3;2;
38288;PMS5003;24092;53.370;-6.588;2022-08-25T09:01:41;4;3;
38288;PMS5003;24092;53.370;-6.588;2022-08-25T09:04:14;3;2;
38288;PMS5003;24092;53.370;-6.588;2022-08-25T09:06:48;4;3;
38288;PMS5003;24092;53.370;-6.588;2022-08-25T09:09:18;5;3;
38288;PMS5003;24092;53.370;-6.588;2022-08-25T09:11:52;4;3;
38288;PMS5003;24092;53.370;-6.588;2022-08-25T09:14:31;3;2;
38288;PMS5003;24092;53.370;-6.588;2022-08-25T09:17:10;4;3;
38288;PMS5003;24092;53.370;-6.588;2022-08-25T09:20:00;2;2;
38288;PMS5003;24092;53.370;-6.588;2022-08-25T09:22:36;3;3;
38288;PMS5003;24092;53.370;-6.588;2022-08-25T09:25:14;6;3;
38288;PMS5003;24092;53.370;-6.588;2022-08-25T09:27:49;2;2;
38288;PMS5003;24092;53.370;-6.588;2022-08-25T09:30:24;4;3;
38288;PMS5003;24092;53.370;-6.588;2022-08-25T09:32:52;3;2;
38288;PMS5003;24092;53.370;-6.588;2022-08-25T09:35:21;0;0;
38288;PMS5003;24092;53.370;-6.588;2022-08-25T09:37:55;4;2;
38288;PMS5003;24092;53.370;-6.588;2022-08-25T09:40:23;2;2;
38288;PMS5003;24092;53.370;-6.588;2022-08-25T09:42:52;4;4;
38288;PMS5003;24092;53.370;-6.588;2022-08-25T09:45:31;4;3;
38288;PMS5003;24092;53.370;-6.588;2022-08-25T09:48:19;2;1;
38288;PMS5003;24092;53.370;-6.588;2022-08-25T09:48:22;2;1;
38288;PMS5003;24092;53.370;-6.588;2022-08-25T09:50:53;1;1;
38288;PMS5003;24092;53.370;-6.588;2022-08-25T09:53:26;2;2;
38288;PMS5003;24092;53.370;-6.588;2022-08-25T09:55:56;2;1;
38288;PMS5003;24092;53.370;-6.588;2022-08-25T09:58:27;1;1;
38288;PMS5003;24092;53.370;-6.588;2022-08-25T10:01:03;2;1;
38288;PMS5003;24092;53.370;-6.588;2022-08-25T10:03:36;3;2;
38288;PMS5003;24092;53.370;-6.588;2022-08-25T10:06:17;3;1;
38288;PMS5003;24092;53.370;-6.588;2022-08-25T10:08:50;1;1;
38288;PMS5003;24092;53.370;-6.588;2022-08-25T10:11:30;0;0;
38288;PMS5003;24092;53.370;-6.588;2022-08-25T10:14:03;2;2;
38288;PMS5003;24092;53.370;-6.588;2022-08-25T10:16:32;2;1;
38288;PMS5003;24092;53.370;-6.588;2022-08-25T10:19:01;2;1;
38288;PMS5003;24092;53.370;-6.588;2022-08-25T10:21:31;2;1;
38288;PMS5003;24092;53.370;-6.588;2022-08-25T10:23:59;2;2;
38288;PMS5003;24092;53.370;-6.588;2022-08-25T10:26:31;2;2;
38288;PMS5003;24092;53.370;-6.588;2022-08-25T10:29:07;2;1;
38288;PMS5003;24092;53.370;-6.588;2022-08-25T10:31:44;1;0;
38288;PMS5003;24092;53.370;-6.588;2022-08-25T10:34:20;1;1;
38288;PMS5003;24092;53.370;-6.588;2022-08-25T10:36:57;3;3;
38288;PMS5003;24092;53.370;-6.588;2022-08-25T10:39:35;4;2;
38288;PMS5003;24092;53.370;-6.588;2022-08-25T10:42:12;2;2;
38288;PMS5003;24092;53.370;-6.588;2022-08-25T10:44:50;3;2;
38288;PMS5003;24092;53.370;-6.588;2022-08-25T10:47:39;6;4;
38288;PMS5003;24092;53.370;-6.588;2022-08-25T10:50:20;3;3;
38288;PMS5003;24092;53.370;-6.588;2022-08-25T10:52:57;4;3;
38288;PMS5003;24092;53.370;-6.588;2022-08-25T10:55:38;3;2;
38288;PMS5003;24092;53.370;-6.588;2022-08-25T10:58:15;3;2;
38288;PMS5003;24092;53.370;-6.588;2022-08-25T11:00:52;3;2;
38288;PMS5003;24092;53.370;-6.588;2022-08-25T11:03:31;3;3;
38288;PMS5003;24092;53.370;-6.588;2022-08-25T11:06:10;1;1;
38288;PMS5003;24092;53.370;-6.588;2022-08-25T11:08:44;3;2;
38288;PMS5003;24092;53.370;-6.588;2022-08-25T11:11:17;4;3;
38288;PMS5003;24092;53.370;-6.588;2022-08-25T11:13:50;2;0;
38288;PMS5003;24092;53.370;-6.588;2022-08-25T11:16:25;1;1;
38288;PMS5003;24092;53.370;-6.588;2022-08-25T11:19:02;2;2;
38288;PMS5003;24092;53.370;-6.588;2022-08-25T11:21:38;3;1;
38288;PMS5003;24092;53.370;-6.588;2022-08-25T11:24:18;3;2;
38288;PMS5003;24092;53.370;-6.588;2022-08-25T11:26:55;2;1;
38288;PMS5003;24092;53.370;-6.588;2022-08-25T11:29:24;0;0;
38288;PMS5003;24092;53.370;-6.588;2022-08-25T11:31:57;2;2;
38288;PMS5003;24092;53.370;-6.588;2022-08-25T11:34:26;2;2;
38288;PMS5003;24092;53.370;-6.588;2022-08-25T11:36:57;1;1;
38288;PMS5003;24092;53.370;-6.588;2022-08-25T11:39:34;1;1;
38288;PMS5003;24092;53.370;-6.588;2022-08-25T11:42:14;1;0;
38288;PMS5003;24092;53.370;-6.588;2022-08-25T11:44:53;2;2;
38288;PMS5003;24092;53.370;-6.588;2022-08-25T11:47:35;2;2;
38288;PMS5003;24092;53.370;-6.588;2022-08-25T11:50:22;2;1;
38288;PMS5003;24092;53.370;-6.588;2022-08-25T11:52:53;2;2;
38288;PMS5003;24092;53.370;-6.588;2022-08-25T11:55:26;0;0;
38288;PMS5003;24092;53.370;-6.588;2022-08-25T11:58:14;1;1;
38288;PMS5003;24092;53.370;-6.588;2022-08-25T12:00:52;1;1;
38288;PMS5003;24092;53.370;-6.588;2022-08-25T12:03:45;1;0;
38288;PMS5003;24092;53.370;-6.588;2022-08-25T12:06:37;3;1;
38288;PMS5003;24092;53.370;-6.588;2022-08-25T12:10:16;3;2;
38288;PMS5003;24092;53.370;-6.588;2022-08-25T12:13:03;2;2;
38288;PMS5003;24092;53.370;-6.588;2022-08-25T12:15:58;3;2;
38288;PMS5003;24092;53.370;-6.588;2022-08-25T12:18:42;2;2;
38288;PMS5003;24092;53.370;-6.588;2022-08-25T12:21:12;5;5;
38288;PMS5003;24092;53.370;-6.588;2022-08-25T12:23:43;1;0;
38288;PMS5003;24092;53.370;-6.588;2022-08-25T12:26:32;1;1;
38288;PMS5003;24092;53.370;-6.588;2022-08-25T12:29:08;2;1;
38288;PMS5003;24092;53.370;-6.588;2022-08-25T12:31:58;2;1;
38288;PMS5003;24092;53.370;-6.588;2022-08-25T12:34:43;2;1;
38288;PMS5003;24092;53.370;-6.588;2022-08-25T12:37:20;2;2;
38288;PMS5003;24092;53.370;-6.588;2022-08-25T12:39:54;4;2;
38288;PMS5003;24092;53.370;-6.588;2022-08-25T12:42:27;1;1;
38288;PMS5003;24092;53.370;-6.588;2022-08-25T12:45:09;1;1;
38288;PMS5003;24092;53.370;-6.588;2022-08-25T12:47:40;3;2;
38288;PMS5003;24092;53.370;-6.588;2022-08-25T12:50:26;0;0;
38288;PMS5003;24092;53.370;-6.588;2022-08-25T12:53:10;2;1;
38288;PMS5003;24092;53.370;-6.588;2022-08-25T12:55:43;3;3;
38288;PMS5003;24092;53.370;-6.588;2022-08-25T12:58:15;2;1;
38288;PMS5003;24092;53.370;-6.588;2022-08-25T13:00:54;1;1;
38288;PMS5003;24092;53.370;-6.588;2022-08-25T13:03:42;1;1;
38288;PMS5003;24092;53.370;-6.588;2022-08-25T13:06:26;1;1;
38288;PMS5003;24092;53.370;-6.588;2022-08-25T13:09:17;3;2;
38288;PMS5003;24092;53.370;-6.588;2022-08-25T13:12:11;1;1;
38288;PMS5003;24092;53.370;-6.588;2022-08-25T13:14:43;2;1;
38288;PMS5003;24092;53.370;-6.588;2022-08-25T13:17:11;2;0;
38288;PMS5003;24092;53.370;-6.588;2022-08-25T13:19:51;1;1;
38288;PMS5003;24092;53.370;-6.588;2022-08-25T13:22:35;1;1;
38288;PMS5003;24092;53.370;-6.588;2022-08-25T13:25:02;5;4;
38288;PMS5003;24092;53.370;-6.588;2022-08-25T13:27:30;1;0;
38288;PMS5003;24092;53.370;-6.588;2022-08-25T13:30:01;2;2;
38288;PMS5003;24092;53.370;-6.588;2022-08-25T13:32:30;1;1;
38288;PMS5003;24092;53.370;-6.588;2022-08-25T13:35:10;2;1;
38288;PMS5003;24092;53.370;-6.588;2022-08-25T13:37:40;1;1;
38288;PMS5003;24092;53.370;-6.588;2022-08-25T13:40:09;1;1;
38288;PMS5003;24092;53.370;-6.588;2022-08-25T13:42:39;2;1;
38288;PMS5003;24092;53.370;-6.588;2022-08-25T13:45:07;2;1;
38288;PMS5003;24092;53.370;-6.588;2022-08-25T13:47:39;1;0;
38288;PMS5003;24092;53.370;-6.588;2022-08-25T13:50:16;0;0;
38288;PMS5003;24092;53.370;-6.588;2022-08-25T13:52:48;0;0;
38288;PMS5003;24092;53.370;-6.588;2022-08-25T13:55:19;1;1;
38288;PMS5003;24092;53.370;-6.588;2022-08-25T13:57:48;1;1;
38288;PMS5003;24092;53.370;-6.588;2022-08-25T14:00:24;0;0;
38288;PMS5003;24092;53.370;-6.588;2022-08-25T14:02:54;2;1;
38288;PMS5003;24092;53.370;-6.588;2022-08-25T14:05:31;1;1;
38288;PMS5003;24092;53.370;-6.588;2022-08-25T14:08:01;0;0;
38288;PMS5003;24092;53.370;-6.588;2022-08-25T14:10:31;1;1;
38288;PMS5003;24092;53.370;-6.588;2022-08-25T14:13:10;2;1;
38288;PMS5003;24092;53.370;-6.588;2022-08-25T14:15:40;1;0;
38288;PMS5003;24092;53.370;-6.588;2022-08-25T14:18:09;1;1;
38288;PMS5003;24092;53.370;-6.588;2022-08-25T14:20:44;1;1;
38288;PMS5003;24092;53.370;-6.588;2022-08-25T14:23:14;2;1;
38288;PMS5003;24092;53.370;-6.588;2022-08-25T14:25:44;4;3;
38288;PMS5003;24092;53.370;-6.588;2022-08-25T14:28:12;1;0;
38288;PMS5003;24092;53.370;-6.588;2022-08-25T14:30:42;2;2;
38288;PMS5003;24092;53.370;-6.588;2022-08-25T14:33:13;2;1;
38288;PMS5003;24092;53.370;-6.588;2022-08-25T14:35:44;3;2;
38288;PMS5003;24092;53.370;-6.588;2022-08-25T14:38:14;1;1;
38288;PMS5003;24092;53.370;-6.588;2022-08-25T14:40:42;3;2;
38288;PMS5003;24092;53.370;-6.588;2022-08-25T14:43:09;1;1;
38288;PMS5003;24092;53.370;-6.588;2022-08-25T14:45:38;1;1;
38288;PMS5003;24092;53.370;-6.588;2022-08-25T14:48:09;3;2;
38288;PMS5003;24092;53.370;-6.588;2022-08-25T14:50:43;2;1;
38288;PMS5003;24092;53.370;-6.588;2022-08-25T14:53:11;4;3;
38288;PMS5003;24092;53.370;-6.588;2022-08-25T14:55:39;3;2;
38288;PMS5003;24092;53.370;-6.588;2022-08-25T14:58:06;4;2;
38288;PMS5003;24092;53.370;-6.588;2022-08-25T15:00:34;3;3;
38288;PMS5003;24092;53.370;-6.588;2022-08-25T15:03:05;6;5;
38288;PMS5003;24092;53.370;-6.588;2022-08-25T15:05:31;3;3;
38288;PMS5003;24092;53.370;-6.588;2022-08-25T15:07:59;2;2;
38288;PMS5003;24092;53.370;-6.588;2022-08-25T15:10:27;4;3;
38288;PMS5003;24092;53.370;-6.588;2022-08-25T15:12:53;4;3;
38288;PMS5003;24092;53.370;-6.588;2022-08-25T15:15:20;4;4;
38288;PMS5003;24092;53.370;-6.588;2022-08-25T15:17:48;3;3;
38288;PMS5003;24092;53.370;-6.588;2022-08-25T15:20:15;4;3;
38288;PMS5003;24092;53.370;-6.588;2022-08-25T15:22:43;1;1;
38288;PMS5003;24092;53.370;-6.588;2022-08-25T15:25:10;3;2;
38288;PMS5003;24092;53.370;-6.588;2022-08-25T15:27:37;2;2;
38288;PMS5003;24092;53.370;-6.588;2022-08-25T15:30:05;1;1;
38288;PMS5003;24092;53.370;-6.588;2022-08-25T15:32:34;3;2;
38288;PMS5003;24092;53.370;-6.588;2022-08-25T15:35:01;4;3;
38288;PMS5003;24092;53.370;-6.588;2022-08-25T15:37:28;2;2;
38288;PMS5003;24092;53.370;-6.588;2022-08-25T15:39:56;2;2;
38288;PMS5003;24092;53.370;-6.588;2022-08-25T15:42:24;2;2;
38288;PMS5003;24092;53.370;-6.588;2022-08-25T15:44:52;1;1;
38288;PMS5003;24092;53.370;-6.588;2022-08-25T15:47:19;2;2;
38288;PMS5003;24092;53.370;-6.588;2022-08-25T15:49:47;2;2;
38288;PMS5003;24092;53.370;-6.588;2022-08-25T15:52:14;4;3;
38288;PMS5003;24092;53.370;-6.588;2022-08-25T15:54:41;3;2;
38288;PMS5003;24092;53.370;-6.588;2022-08-25T15:57:09;2;1;
38288;PMS5003;24092;53.370;-6.588;2022-08-25T15:59:36;2;2;
38288;PMS5003;24092;53.370;-6.588;2022-08-25T16:02:03;2;2;
38288;PMS5003;24092;53.370;-6.588;2022-08-25T16:04:31;3;3;
38288;PMS5003;24092;53.370;-6.588;2022-08-25T16:06:58;1;1;
38288;PMS5003;24092;53.370;-6.588;2022-08-25T16:09:26;2;1;
38288;PMS5003;24092;53.370;-6.588;2022-08-25T16:11:54;5;2;
38288;PMS5003;24092;53.370;-6.588;2022-08-25T16:14:21;2;1;
38288;PMS5003;24092;53.370;-6.588;2022-08-25T16:16:48;2;2;
38288;PMS5003;24092;53.370;-6.588;2022-08-25T16:19:15;1;1;
38288;PMS5003;24092;53.370;-6.588;2022-08-25T16:21:42;3;2;
38288;PMS5003;24092;53.370;-6.588;2022-08-25T16:24:10;2;1;
38288;PMS5003;24092;53.370;-6.588;2022-08-25T16:26:37;2;1;
38288;PMS5003;24092;53.370;-6.588;2022-08-25T16:29:05;2;2;
38288;PMS5003;24092;53.370;-6.588;2022-08-25T16:31:32;1;1;
38288;PMS5003;24092;53.370;-6.588;2022-08-25T16:34:00;3;2;
38288;PMS5003;24092;53.370;-6.588;2022-08-25T16:36:28;3;2;
38288;PMS5003;24092;53.370;-6.588;2022-08-25T16:38:55;3;3;
38288;PMS5003;24092;53.370;-6.588;2022-08-25T16:41:24;3;2;
38288;PMS5003;24092;53.370;-6.588;2022-08-25T16:43:53;1;1;
38288;PMS5003;24092;53.370;-6.588;2022-08-25T16:46:20;3;2;
38288;PMS5003;24092;53.370;-6.588;2022-08-25T16:48:48;3;2;
38288;PMS5003;24092;53.370;-6.588;2022-08-25T16:51:18;3;2;